Time,TemperatureF,DewpointF,PressureIn,WindDirection,WindDirectionDegrees,WindSpeedMPH,WindSpeedGustMPH,Humidity,HourlyPrecipIn,Conditions,Clouds,dailyrainin,SoftwareType,DateUTC
2013-02-11 00:02:00,35.0,33.0,-100.00,SW,235,27.0,40.0,90,0.00,,,-99.99,,2013-02-11 06:02:00,
2013-02-11 00:11:00,35.0,33.0,-100.00,SW,235,26.0,40.0,90,0.00,,,-99.99,,2013-02-11 06:11:00,
2013-02-11 00:21:00,35.0,32.0,-100.00,WSW,240,26.0,38.0,90,0.00,,,-99.99,,2013-02-11 06:21:00,
2013-02-11 00:32:00,35.0,32.0,-100.00,WSW,240,26.0,37.0,89,0.00,,,-99.99,,2013-02-11 06:32:00,
2013-02-11 00:42:00,35.0,32.0,-100.00,WSW,250,26.0,46.0,88,0.00,,,-99.99,,2013-02-11 06:42:00,
2013-02-11 00:51:00,34.0,31.0,-100.00,WSW,245,32.0,43.0,87,0.00,,,-99.99,,2013-02-11 06:51:00,
2013-02-11 01:01:00,34.0,31.0,-100.00,WSW,245,32.0,43.0,87,0.00,,,-99.99,,2013-02-11 07:01:00,
2013-02-11 01:11:00,34.0,30.0,-100.00,WSW,245,29.0,42.0,86,0.00,,,-99.99,,2013-02-11 07:11:00,
2013-02-11 01:21:00,34.0,30.0,-100.00,WSW,245,27.0,41.0,86,0.00,,,-99.99,,2013-02-11 07:21:00,
2013-02-11 01:32:00,34.0,30.0,-100.00,WSW,245,29.0,41.0,85,0.00,,,-99.99,,2013-02-11 07:32:00,
2013-02-11 01:41:00,34.0,30.0,-100.00,WSW,245,29.0,41.0,85,0.00,,,-99.99,,2013-02-11 07:41:00,
2013-02-11 01:52:00,34.0,29.0,-100.00,WSW,255,26.0,40.0,84,0.00,,,-99.99,,2013-02-11 07:52:00,
2013-02-11 02:01:00,34.0,29.0,-100.00,WSW,250,29.0,40.0,84,0.00,,,-99.99,,2013-02-11 08:01:00,
2013-02-11 02:11:00,33.0,30.0,-100.00,WSW,240,21.0,34.0,87,0.00,,,-99.99,,2013-02-11 08:11:00,
2013-02-11 02:21:00,33.0,30.0,-100.00,WSW,240,32.0,42.0,86,0.00,,,-99.99,,2013-02-11 08:21:00,
2013-02-11 02:31:00,33.0,29.0,-100.00,WSW,245,28.0,44.0,83,0.00,,,-99.99,,2013-02-11 08:31:00,
2013-02-11 02:42:00,33.0,28.0,-100.00,WSW,255,26.0,39.0,81,0.00,,,-99.99,,2013-02-11 08:42:00,
2013-02-11 02:52:00,33.0,27.0,-100.00,WSW,250,26.0,38.0,79,0.00,,,-99.99,,2013-02-11 08:52:00,
2013-02-11 03:01:00,33.0,27.0,-100.00,WSW,250,26.0,38.0,79,0.00,,,-99.99,,2013-02-11 09:01:00,
2013-02-11 03:12:00,33.0,27.0,-100.00,WSW,250,24.0,37.0,79,0.00,,,-99.99,,2013-02-11 09:12:00,
2013-02-11 03:21:00,33.0,27.0,-100.00,WSW,255,25.0,39.0,78,0.00,,,-99.99,,2013-02-11 09:21:00,
2013-02-11 03:32:00,33.0,27.0,-100.00,West,260,24.0,39.0,78,0.00,,,-99.99,,2013-02-11 09:32:00,
2013-02-11 03:41:00,33.0,27.0,-100.00,West,260,26.0,35.0,78,0.00,,,-99.99,,2013-02-11 09:41:00,
2013-02-11 03:51:00,33.0,27.0,-100.00,WSW,255,24.0,35.0,79,0.00,,,-99.99,,2013-02-11 09:51:00,
2013-02-11 04:01:00,33.0,27.0,-100.00,WSW,255,24.0,35.0,79,0.00,,,-99.99,,2013-02-11 10:01:00,
2013-02-11 04:11:00,33.0,27.0,-100.00,WSW,255,28.0,38.0,78,0.00,,,-99.99,,2013-02-11 10:11:00,
2013-02-11 04:21:00,33.0,27.0,-100.00,WSW,255,22.0,37.0,78,0.00,,,-99.99,,2013-02-11 10:21:00,
2013-02-11 04:31:00,32.0,27.0,-100.00,West,260,25.0,35.0,79,0.00,,,-99.99,,2013-02-11 10:31:00,
2013-02-11 04:41:00,32.0,27.0,-100.00,West,265,21.0,36.0,79,0.00,,,-99.99,,2013-02-11 10:41:00,
2013-02-11 04:51:00,33.0,27.0,-100.00,WSW,255,22.0,34.0,79,0.00,,,-99.99,,2013-02-11 10:51:00,
2013-02-11 05:01:00,33.0,27.0,-100.00,WSW,255,22.0,34.0,79,0.00,,,-99.99,,2013-02-11 11:01:00,
2013-02-11 05:11:00,32.0,27.0,-100.00,WSW,255,18.0,33.0,80,0.00,,,-99.99,,2013-02-11 11:11:00,
2013-02-11 05:22:00,32.0,27.0,-100.00,WSW,250,19.0,35.0,80,0.00,,,-99.99,,2013-02-11 11:22:00,
2013-02-11 05:32:00,33.0,27.0,-100.00,WSW,245,22.0,32.0,80,0.00,,,-99.99,,2013-02-11 11:32:00,
2013-02-11 05:42:00,33.0,27.0,-100.00,WSW,245,22.0,32.0,80,0.00,,,-99.99,,2013-02-11 11:42:00,
2013-02-11 05:52:00,32.0,27.0,-100.00,WSW,245,24.0,32.0,81,0.00,,,-99.99,,2013-02-11 11:52:00,
2013-02-11 06:03:00,32.0,27.0,-100.00,WSW,245,24.0,32.0,81,0.00,,,-99.99,,2013-02-11 12:03:00,
2013-02-11 06:12:00,32.0,27.0,-100.00,West,270,22.0,34.0,79,0.00,,,-99.99,,2013-02-11 12:12:00,
2013-02-11 06:22:00,32.0,27.0,-100.00,WSW,255,21.0,32.0,79,0.00,,,-99.99,,2013-02-11 12:22:00,
2013-02-11 06:32:00,32.0,27.0,-100.00,West,265,22.0,35.0,80,0.00,,,-99.99,,2013-02-11 12:32:00,
2013-02-11 06:42:00,32.0,27.0,-100.00,West,270,19.0,35.0,80,0.00,,,-99.99,,2013-02-11 12:42:00,
2013-02-11 06:52:00,32.0,26.0,-100.00,West,265,24.0,36.0,80,0.00,,,-99.99,,2013-02-11 12:52:00,
2013-02-11 07:02:00,32.0,26.0,-100.00,West,265,24.0,36.0,80,0.00,,,-99.99,,2013-02-11 13:02:00,
2013-02-11 07:12:00,32.0,26.0,-100.00,WSW,255,22.0,35.0,79,0.00,,,-99.99,,2013-02-11 13:12:00,
2013-02-11 07:22:00,32.0,26.0,-100.00,West,260,21.0,35.0,78,0.00,,,-99.99,,2013-02-11 13:22:00,
2013-02-11 07:32:00,31.0,26.0,-100.00,West,270,26.0,40.0,77,0.00,,,-99.99,,2013-02-11 13:32:00,
2013-02-11 07:42:00,31.0,26.0,-100.00,West,280,26.0,40.0,79,0.00,,,-99.99,,2013-02-11 13:42:00,
2013-02-11 07:52:00,31.0,26.0,-100.00,West,265,22.0,37.0,79,0.00,,,-99.99,,2013-02-11 13:52:00,
2013-02-11 08:01:00,31.0,26.0,-100.00,West,265,22.0,37.0,79,0.00,,,-99.99,,2013-02-11 14:01:00,
2013-02-11 08:11:00,31.0,26.0,-100.00,West,275,30.0,40.0,80,0.00,,,-99.99,,2013-02-11 14:11:00,
2013-02-11 08:21:00,31.0,26.0,-100.00,West,275,28.0,42.0,79,0.00,,,-99.99,,2013-02-11 14:21:00,
2013-02-11 08:32:00,31.0,26.0,-100.00,West,275,21.0,30.0,80,0.00,,,-99.99,,2013-02-11 14:32:00,
2013-02-11 08:42:00,31.0,26.0,-100.00,West,275,21.0,30.0,80,0.00,,,-99.99,,2013-02-11 14:42:00,
2013-02-11 08:52:00,31.0,26.0,-100.00,West,275,30.0,35.0,80,0.00,,,-99.99,,2013-02-11 14:52:00,
2013-02-11 09:02:00,31.0,26.0,-100.00,West,275,30.0,35.0,80,0.00,,,-99.99,,2013-02-11 15:02:00,
2013-02-11 09:11:00,31.0,26.0,-100.00,West,270,24.0,35.0,80,0.00,,,-99.99,,2013-02-11 15:11:00,
2013-02-11 09:22:00,31.0,26.0,-100.00,West,280,26.0,34.0,80,0.00,,,-99.99,,2013-02-11 15:22:00,
2013-02-11 09:32:00,31.0,25.0,-100.00,West,280,26.0,42.0,78,0.00,,,-99.99,,2013-02-11 15:32:00,
2013-02-11 09:42:00,31.0,25.0,-100.00,West,280,26.0,42.0,78,0.00,,,-99.99,,2013-02-11 15:42:00,
2013-02-11 09:52:00,31.0,25.0,-100.00,West,270,27.0,39.0,79,0.00,,,-99.99,,2013-02-11 15:52:00,
2013-02-11 10:02:00,31.0,25.0,-100.00,West,270,27.0,39.0,79,0.00,,,-99.99,,2013-02-11 16:02:00,
2013-02-11 10:11:00,31.0,25.0,-100.00,West,280,32.0,42.0,78,0.00,,,-99.99,,2013-02-11 16:11:00,
2013-02-11 10:22:00,31.0,24.0,-100.00,West,275,30.0,40.0,77,0.00,,,-99.99,,2013-02-11 16:22:00,
2013-02-11 10:32:00,31.0,24.0,-100.00,West,280,32.0,40.0,76,0.00,,,-99.99,,2013-02-11 16:32:00,
2013-02-11 10:42:00,31.0,24.0,-100.00,West,280,32.0,40.0,76,0.00,,,-99.99,,2013-02-11 16:42:00,
2013-02-11 11:01:00,31.0,24.0,-100.00,West,270,26.0,40.0,76,0.00,,,-99.99,,2013-02-11 17:01:00,
2013-02-11 11:11:00,31.0,24.0,-100.00,West,270,26.0,40.0,76,0.00,,,-99.99,,2013-02-11 17:11:00,
2013-02-11 11:21:00,31.0,25.0,-100.00,West,275,26.0,37.0,78,0.00,,,-99.99,,2013-02-11 17:21:00,
2013-02-11 11:32:00,31.0,24.0,-100.00,West,275,27.0,39.0,77,0.00,,,-99.99,,2013-02-11 17:32:00,
2013-02-11 11:42:00,31.0,24.0,-100.00,West,275,30.0,39.0,76,0.00,,,-99.99,,2013-02-11 17:42:00,
2013-02-11 11:53:00,31.0,24.0,-100.00,WNW,285,29.0,37.0,76,0.00,,,-99.99,,2013-02-11 17:53:00,
2013-02-11 12:01:00,31.0,24.0,-100.00,WNW,285,29.0,37.0,76,0.00,,,-99.99,,2013-02-11 18:01:00,
2013-02-11 12:11:00,31.0,25.0,-100.00,West,270,24.0,35.0,77,0.00,,,-99.99,,2013-02-11 18:11:00,
2013-02-11 12:21:00,31.0,24.0,-100.00,West,275,29.0,40.0,76,0.00,,,-99.99,,2013-02-11 18:21:00,
2013-02-11 12:32:00,31.0,24.0,-100.00,West,280,21.0,32.0,76,0.00,,,-99.99,,2013-02-11 18:32:00,
2013-02-11 12:42:00,31.0,24.0,-100.00,West,280,21.0,32.0,77,0.00,,,-99.99,,2013-02-11 18:42:00,
2013-02-11 12:52:00,30.0,24.0,-100.00,West,280,27.0,39.0,76,0.00,,,-99.99,,2013-02-11 18:52:00,
2013-02-11 13:02:00,30.0,24.0,-100.00,West,280,27.0,39.0,76,0.00,,,-99.99,,2013-02-11 19:02:00,
2013-02-11 13:11:00,30.0,24.0,-100.00,West,270,28.0,40.0,76,0.00,,,-99.99,,2013-02-11 19:11:00,
2013-02-11 13:21:00,30.0,24.0,-100.00,West,270,28.0,40.0,76,0.00,,,-99.99,,2013-02-11 19:21:00,
2013-02-11 13:32:00,30.0,24.0,-100.00,West,270,23.0,35.0,76,0.00,,,-99.99,,2013-02-11 19:32:00,
2013-02-11 13:41:00,30.0,24.0,-100.00,West,270,23.0,35.0,76,0.00,,,-99.99,,2013-02-11 19:41:00,
2013-02-11 13:51:00,30.0,24.0,-100.00,West,275,26.0,35.0,77,0.00,,,-99.99,,2013-02-11 19:51:00,
2013-02-11 14:01:00,30.0,24.0,-100.00,West,275,26.0,35.0,77,0.00,,,-99.99,,2013-02-11 20:01:00,
2013-02-11 14:11:00,30.0,24.0,-100.00,West,275,27.0,36.0,77,0.00,,,-99.99,,2013-02-11 20:11:00,
2013-02-11 14:21:00,31.0,24.0,-100.00,West,270,27.0,37.0,76,0.00,,,-99.99,,2013-02-11 20:21:00,
2013-02-11 14:32:00,31.0,24.0,-100.00,West,280,24.0,38.0,75,0.00,,,-99.99,,2013-02-11 20:32:00,
2013-02-11 14:41:00,31.0,24.0,-100.00,West,280,24.0,38.0,75,0.00,,,-99.99,,2013-02-11 20:41:00,
2013-02-11 14:52:00,30.0,24.0,-100.00,West,280,26.0,32.0,77,0.00,,,-99.99,,2013-02-11 20:52:00,
2013-02-11 15:02:00,30.0,24.0,-100.00,WNW,285,23.0,34.0,77,0.00,,,-99.99,,2013-02-11 21:02:00,
2013-02-11 15:11:00,30.0,24.0,-100.00,West,280,24.0,32.0,76,0.00,,,-99.99,,2013-02-11 21:11:00,
2013-02-11 15:21:00,30.0,24.0,-100.00,WNW,285,24.0,32.0,76,0.00,,,-99.99,,2013-02-11 21:21:00,
2013-02-11 15:32:00,30.0,24.0,-100.00,WNW,285,21.0,35.0,76,0.00,,,-99.99,,2013-02-11 21:32:00,
2013-02-11 15:42:00,30.0,24.0,-100.00,West,270,27.0,35.0,76,0.00,,,-99.99,,2013-02-11 21:42:00,
2013-02-11 15:51:00,30.0,24.0,-100.00,West,280,22.0,34.0,78,0.00,,,-99.99,,2013-02-11 21:51:00,
2013-02-11 16:01:00,30.0,24.0,-100.00,West,275,26.0,34.0,78,0.00,,,-99.99,,2013-02-11 22:01:00,
2013-02-11 16:11:00,30.0,24.0,-100.00,West,275,23.0,30.0,78,0.00,,,-99.99,,2013-02-11 22:11:00,
2013-02-11 16:21:00,30.0,24.0,-100.00,West,280,20.0,30.0,77,0.00,,,-99.99,,2013-02-11 22:21:00,
2013-02-11 16:32:00,30.0,24.0,-100.00,WNW,290,21.0,27.0,77,0.00,,,-99.99,,2013-02-11 22:32:00,
2013-02-11 16:42:00,30.0,24.0,-100.00,West,280,18.0,32.0,79,0.00,,,-99.99,,2013-02-11 22:42:00,
2013-02-11 16:52:00,29.0,24.0,-100.00,WNW,285,22.0,27.0,80,0.00,,,-99.99,,2013-02-11 22:52:00,
2013-02-11 17:02:00,29.0,24.0,-100.00,WNW,285,22.0,27.0,80,0.00,,,-99.99,,2013-02-11 23:02:00,
2013-02-11 17:11:00,29.0,24.0,-100.00,WNW,285,21.0,29.0,79,0.00,,,-99.99,,2013-02-11 23:11:00,
2013-02-11 17:21:00,29.0,24.0,-100.00,WNW,285,21.0,27.0,79,0.00,,,-99.99,,2013-02-11 23:21:00,
2013-02-11 17:32:00,29.0,24.0,-100.00,WNW,285,19.0,27.0,79,0.00,,,-99.99,,2013-02-11 23:32:00,
2013-02-11 17:41:00,29.0,24.0,-100.00,West,275,22.0,30.0,79,0.00,,,-99.99,,2013-02-11 23:41:00,
2013-02-11 17:52:00,30.0,24.0,-100.00,West,275,24.0,30.0,80,0.00,,,-99.99,,2013-02-11 23:52:00,
2013-02-11 18:01:00,30.0,24.0,-100.00,West,275,24.0,30.0,80,0.00,,,-99.99,,2013-02-12 00:01:00,
2013-02-11 18:11:00,29.0,24.0,-100.00,West,275,19.0,29.0,81,0.00,,,-99.99,,2013-02-12 00:11:00,
2013-02-11 18:22:00,29.0,24.0,-100.00,West,275,26.0,30.0,80,0.00,,,-99.99,,2013-02-12 00:22:00,
2013-02-11 18:32:00,29.0,24.0,-100.00,West,280,20.0,32.0,80,0.00,,,-99.99,,2013-02-12 00:32:00,
2013-02-11 18:42:00,29.0,24.0,-100.00,West,280,19.0,29.0,81,0.00,,,-99.99,,2013-02-12 00:42:00,
2013-02-11 18:52:00,29.0,24.0,-100.00,West,280,21.0,31.0,81,0.00,,,-99.99,,2013-02-12 00:52:00,
2013-02-11 19:02:00,29.0,24.0,-100.00,West,280,22.0,34.0,80,0.00,,,-99.99,,2013-02-12 01:02:00,
2013-02-11 19:11:00,29.0,24.0,-100.00,WNW,285,21.0,31.0,81,0.00,,,-99.99,,2013-02-12 01:11:00,
2013-02-11 19:21:00,28.0,23.0,-100.00,WNW,295,19.0,32.0,80,0.00,,,-99.99,,2013-02-12 01:21:00,
2013-02-11 19:32:00,28.0,23.0,-100.00,West,280,17.0,23.0,80,0.00,,,-99.99,,2013-02-12 01:32:00,
2013-02-11 19:42:00,28.0,23.0,-100.00,West,280,17.0,23.0,80,0.00,,,-99.99,,2013-02-12 01:42:00,
2013-02-11 19:51:00,28.0,23.0,-100.00,WNW,285,18.0,23.0,80,0.00,,,-99.99,,2013-02-12 01:51:00,
2013-02-11 20:01:00,28.0,23.0,-100.00,West,280,21.0,30.0,80,0.00,,,-99.99,,2013-02-12 02:01:00,
2013-02-11 20:12:00,28.0,23.0,-100.00,West,280,19.0,27.0,80,0.00,,,-99.99,,2013-02-12 02:12:00,
2013-02-11 20:21:00,28.0,24.0,-100.00,West,280,20.0,26.0,81,0.00,,,-99.99,,2013-02-12 02:21:00,
2013-02-11 20:32:00,28.0,23.0,-100.00,WNW,285,20.0,27.0,81,0.00,,,-99.99,,2013-02-12 02:32:00,
2013-02-11 20:41:00,28.0,23.0,-100.00,WNW,290,18.0,27.0,81,0.00,,,-99.99,,2013-02-12 02:41:00,
2013-02-11 20:52:00,28.0,24.0,-100.00,WNW,285,14.0,24.0,82,0.00,,,-99.99,,2013-02-12 02:52:00,
2013-02-11 21:02:00,28.0,24.0,-100.00,WNW,285,15.0,23.0,82,0.00,,,-99.99,,2013-02-12 03:02:00,
2013-02-11 21:11:00,28.0,24.0,-100.00,WNW,295,15.0,23.0,82,0.00,,,-99.99,,2013-02-12 03:11:00,
2013-02-11 21:21:00,28.0,24.0,-100.00,WNW,295,19.0,24.0,82,0.00,,,-99.99,,2013-02-12 03:21:00,
2013-02-11 21:31:00,28.0,23.0,-100.00,WNW,300,20.0,24.0,82,0.00,,,-99.99,,2013-02-12 03:31:00,
2013-02-11 21:42:00,27.0,22.0,-100.00,WNW,300,16.0,23.0,82,0.00,,,-99.99,,2013-02-12 03:42:00,
2013-02-11 21:51:00,27.0,22.0,-100.00,WNW,295,17.0,25.0,82,0.00,,,-99.99,,2013-02-12 03:51:00,
2013-02-11 22:01:00,27.0,22.0,-100.00,WNW,285,16.0,24.0,82,0.00,,,-99.99,,2013-02-12 04:01:00,
2013-02-11 22:11:00,26.0,22.0,-100.00,WNW,300,12.0,24.0,82,0.00,,,-99.99,,2013-02-12 04:11:00,
2013-02-11 22:21:00,26.0,22.0,-100.00,WNW,290,17.0,21.0,82,0.00,,,-99.99,,2013-02-12 04:21:00,
2013-02-11 22:31:00,26.0,21.0,-100.00,WNW,285,19.0,24.0,82,0.00,,,-99.99,,2013-02-12 04:31:00,
2013-02-11 22:41:00,26.0,21.0,-100.00,WNW,295,17.0,24.0,82,0.00,,,-99.99,,2013-02-12 04:41:00,
2013-02-11 22:51:00,26.0,22.0,-100.00,West,275,16.0,21.0,82,0.00,,,-99.99,,2013-02-12 04:51:00,
2013-02-11 23:01:00,26.0,22.0,-100.00,WNW,285,14.0,19.0,82,0.00,,,-99.99,,2013-02-12 05:01:00,
2013-02-11 23:11:00,26.0,22.0,-100.00,WNW,290,17.0,24.0,82,0.00,,,-99.99,,2013-02-12 05:11:00,
2013-02-11 23:21:00,26.0,22.0,-100.00,WNW,290,17.0,24.0,82,0.00,,,-99.99,,2013-02-12 05:21:00,
2013-02-11 23:31:00,26.0,22.0,-100.00,WNW,285,17.0,23.0,83,0.00,,,-99.99,,2013-02-12 05:31:00,
2013-02-11 23:42:00,26.0,22.0,-100.00,WNW,285,13.0,21.0,83,0.00,,,-99.99,,2013-02-12 05:42:00,
2013-02-11 23:52:00,26.0,22.0,-100.00,WNW,295,15.0,21.0,83,0.00,,,-99.99,,2013-02-12 05:52:00,